Norfolk, Virginia
Traffic Map
Current Weather Conditions
Norfolk, Virginia
Overcast
Overcast
75°
Feels Like: 75°
Wind Chill: 75° Ceiling: 1500
Heat Index: 75° Visibility: 8mi
Dew Point: 74° Wind: 3mph
Humidity: 96% Direction: 190° (S)
Pressure: 30.1in Gusts: 0mph
Raw Report DataKORF 260425Z 19003KT 8SM SCT006 BKN015 OVC055 24/23 A3010 RMK AO2 T02390233
Traffic Incident Summary
Active as of:
Severity:
Category:
InformationThere was an issue retrieving the traffic information for this location. Please try a different location or try again shortly.
Advertisements